createdAt,value
2023-03-22T00:02:14.683Z,97539.88
2023-03-22T00:04:42.425Z,97539.66
2023-03-22T00:07:09.759Z,97540.22
2023-03-22T00:09:37.005Z,97546.13
2023-03-22T00:12:04.486Z,97546.34
2023-03-22T00:14:33.012Z,97536.38
2023-03-22T00:17:00.111Z,97541.56
2023-03-22T00:19:27.567Z,97537.16
2023-03-22T00:21:54.613Z,97537.16
2023-03-22T00:24:21.877Z,97532.81
2023-03-22T00:26:48.963Z,97526.59
2023-03-22T00:29:16.534Z,97532.00
2023-03-22T00:31:45.374Z,97522.00
2023-03-22T00:34:12.991Z,97528.72
2023-03-22T00:36:40.033Z,97529.31
2023-03-22T00:39:07.296Z,97518.72
2023-03-22T00:41:34.372Z,97522.25
2023-03-22T00:44:01.403Z,97516.59
2023-03-22T00:46:30.888Z,97518.22
2023-03-22T00:48:59.465Z,97512.38
2023-03-22T00:51:26.533Z,97515.53
2023-03-22T00:53:53.567Z,97510.38
2023-03-22T00:56:20.976Z,97507.41
2023-03-22T00:58:56.273Z,97501.66
2023-03-22T01:01:23.675Z,97498.13
2023-03-22T01:03:51.041Z,97495.78
2023-03-22T01:06:19.754Z,97500.59
2023-03-22T01:08:46.884Z,97491.41
2023-03-22T01:11:17.288Z,97489.19
2023-03-22T01:13:44.516Z,97482.72
2023-03-22T01:16:11.679Z,97482.47
2023-03-22T01:18:39.648Z,97481.09
2023-03-22T01:21:07.782Z,97480.00
2023-03-22T01:23:36.966Z,97475.41
2023-03-22T01:26:04.491Z,97470.25
2023-03-22T01:28:31.610Z,97461.31
2023-03-22T01:31:01.039Z,97459.44
2023-03-22T01:33:28.617Z,97470.84
2023-03-22T01:35:56.099Z,97461.06
2023-03-22T01:38:23.517Z,97457.53
2023-03-22T01:40:58.648Z,97462.94
2023-03-22T01:43:27.373Z,97451.88
2023-03-22T01:45:55.322Z,97454.59
2023-03-22T01:48:28.210Z,97451.31
2023-03-22T01:51:00.175Z,97445.06
2023-03-22T01:53:28.577Z,97447.28
2023-03-22T01:55:57.790Z,97441.06
2023-03-22T01:58:32.014Z,97438.94
2023-03-22T02:01:02.632Z,97436.47
2023-03-22T02:03:47.398Z,97432.38
2023-03-22T02:06:14.749Z,97433.19
2023-03-22T02:08:42.527Z,97428.00
2023-03-22T02:11:17.401Z,97431.53
2023-03-22T02:13:59.481Z,97411.75
2023-03-22T02:16:50.218Z,97416.72
2023-03-22T02:19:42.233Z,97412.09
2023-03-22T02:22:24.197Z,97415.31
2023-03-22T02:25:09.184Z,97412.94
2023-03-22T02:27:42.954Z,97408.03
2023-03-22T02:30:24.088Z,97420.00
2023-03-22T02:33:16.204Z,97412.09
2023-03-22T02:35:52.370Z,97410.72
2023-03-22T02:38:33.390Z,97401.53
2023-03-22T02:41:07.570Z,97408.59
2023-03-22T02:43:38.017Z,97400.47
2023-03-22T02:46:07.873Z,97395.53
2023-03-22T02:48:39.565Z,97396.84
2023-03-22T02:51:10.042Z,97388.72
2023-03-22T02:53:41.347Z,97390.59
2023-03-22T02:56:11.795Z,97387.88
2023-03-22T02:58:40.892Z,97385.19
2023-03-22T03:01:11.510Z,97384.75
2023-03-22T03:03:39.879Z,97374.16
2023-03-22T03:06:09.925Z,97382.03
2023-03-22T03:08:38.370Z,97366.59
2023-03-22T03:11:06.682Z,97369.31
2023-03-22T03:13:36.383Z,97370.72
2023-03-22T03:16:04.302Z,97369.19
2023-03-22T03:18:38.850Z,97371.44
2023-03-22T03:21:10.595Z,97365.19
2023-03-22T03:23:46.303Z,97353.56
2023-03-22T03:26:18.510Z,97353.56
2023-03-22T03:28:50.395Z,97348.13
2023-03-22T03:31:28.755Z,97346.25
2023-03-22T03:33:59.977Z,97350.59
2023-03-22T03:36:28.394Z,97341.19
2023-03-22T03:38:56.654Z,97336.59
2023-03-22T03:41:27.756Z,97340.94
2023-03-22T03:43:57.338Z,97341.59
2023-03-22T03:46:25.218Z,97329.03
2023-03-22T03:48:56.586Z,97333.47
2023-03-22T03:51:24.022Z,97334.56
2023-03-22T03:53:51.199Z,97328.91
2023-03-22T03:56:19.318Z,97324.22
2023-03-22T03:58:49.181Z,97316.09
2023-03-22T04:01:18.134Z,97319.94
2023-03-22T04:04:09.539Z,97307.97
2023-03-22T04:06:45.938Z,97309.13
2023-03-22T04:09:24.230Z,97305.84
2023-03-22T04:11:55.925Z,97302.91
2023-03-22T04:14:23.484Z,97299.38
2023-03-22T04:16:54.425Z,97301.28
2023-03-22T04:19:23.416Z,97309.97
2023-03-22T04:21:50.497Z,97301.47
2023-03-22T04:24:17.606Z,97308.16
2023-03-22T04:26:46.898Z,97303.69
2023-03-22T04:29:34.961Z,97303.69
2023-03-22T04:32:24.644Z,97299.19
2023-03-22T04:34:53.501Z,97298.41
2023-03-22T04:37:23.111Z,97302.75
2023-03-22T04:40:09.298Z,97294.56
2023-03-22T04:42:45.833Z,97285.25
2023-03-22T04:45:18.975Z,97287.28
2023-03-22T04:47:54.972Z,97281.56
2023-03-22T04:50:23.624Z,97281.47
2023-03-22T04:52:56.403Z,97276.63
2023-03-22T04:55:23.727Z,97278.16
2023-03-22T04:57:50.878Z,97270.84
2023-03-22T05:00:18.381Z,97276.81
2023-03-22T05:02:46.417Z,97273.03
2023-03-22T05:05:25.162Z,97270.84
2023-03-22T05:07:52.824Z,97267.34
2023-03-22T05:10:20.404Z,97262.56
2023-03-22T05:12:48.585Z,97251.72
2023-03-22T05:15:26.782Z,97256.47
2023-03-22T05:17:54.455Z,97248.75
2023-03-22T05:20:22.131Z,97249.72
2023-03-22T05:23:03.886Z,97241.28
2023-03-22T05:25:33.127Z,97243.56
2023-03-22T05:28:01.042Z,97239.84
2023-03-22T05:30:42.896Z,97230.63
2023-03-22T05:33:26.743Z,97224.69
2023-03-22T05:35:57.327Z,97223.78
2023-03-22T05:38:28.662Z,97217.00
2023-03-22T05:40:59.060Z,97212.59
2023-03-22T05:43:26.792Z,97199.25
2023-03-22T05:45:54.399Z,97201.94
2023-03-22T05:48:33.671Z,97200.19
2023-03-22T05:51:01.259Z,97188.44
2023-03-22T05:53:32.905Z,97179.44
2023-03-22T05:56:07.510Z,97190.13
2023-03-22T05:58:35.399Z,97186.41
2023-03-22T06:01:05.101Z,97182.66
2023-03-22T06:03:47.903Z,97178.09
2023-03-22T06:06:33.835Z,97166.44
2023-03-22T06:09:16.991Z,97173.09
2023-03-22T06:11:49.103Z,97168.53
2023-03-22T06:14:18.029Z,97170.66
2023-03-22T06:16:56.584Z,97164.75
2023-03-22T06:19:25.396Z,97160.59
2023-03-22T06:21:53.712Z,97152.56
2023-03-22T06:24:25.534Z,97144.25
2023-03-22T06:26:54.066Z,97134.00
2023-03-22T06:29:21.613Z,97137.94
2023-03-22T06:31:52.248Z,97130.00
2023-03-22T06:34:20.254Z,97129.88
2023-03-22T06:36:48.078Z,97134.97
2023-03-22T06:39:31.114Z,97139.41
2023-03-22T06:41:58.648Z,97129.06
2023-03-22T06:44:26.526Z,97129.31
2023-03-22T06:46:54.364Z,97119.25
2023-03-22T06:49:40.028Z,97110.56
2023-03-22T06:52:09.202Z,97112.75
2023-03-22T06:54:38.747Z,97099.88
2023-03-22T06:57:06.091Z,97106.03
2023-03-22T06:59:34.763Z,97091.28
2023-03-22T07:02:03.074Z,97096.69
2023-03-22T07:04:30.660Z,97086.94
2023-03-22T07:06:59.155Z,97076.66
2023-03-22T07:09:27.517Z,97092.97
2023-03-22T07:11:59.423Z,97075.53
2023-03-22T07:14:26.522Z,97092.72
2023-03-22T07:17:01.582Z,97084.75
2023-03-22T07:19:30.067Z,97093.94
2023-03-22T07:21:59.091Z,97090.03
2023-03-22T07:24:27.200Z,97090.94
2023-03-22T07:26:55.399Z,97082.28
2023-03-22T07:29:29.143Z,97091.84
2023-03-22T07:31:58.115Z,97088.59
2023-03-22T07:34:30.183Z,97081.06
2023-03-22T07:37:13.233Z,97078.50
2023-03-22T07:39:41.699Z,97082.03
2023-03-22T07:42:08.929Z,97085.72
2023-03-22T07:44:43.510Z,97072.69
2023-03-22T07:47:40.901Z,97077.59
2023-03-22T07:50:32.283Z,97070.38
2023-03-22T07:53:02.880Z,97078.88
2023-03-22T07:55:30.935Z,97063.38
2023-03-22T07:57:58.806Z,97061.66
2023-03-22T08:00:27.947Z,97052.44
2023-03-22T08:03:15.596Z,97060.97
2023-03-22T08:06:09.525Z,97054.34
2023-03-22T08:08:39.442Z,97047.69
2023-03-22T08:11:07.572Z,97053.03
2023-03-22T08:13:35.405Z,97047.44
2023-03-22T08:16:05.380Z,97041.09
2023-03-22T08:18:33.193Z,97038.66
2023-03-22T08:21:00.991Z,97032.31
2023-03-22T08:23:41.399Z,97024.50
2023-03-22T08:26:29.275Z,97024.78
2023-03-22T08:29:04.363Z,97018.31
2023-03-22T08:31:35.865Z,97023.59
2023-03-22T08:34:03.447Z,97020.16
2023-03-22T08:36:31.803Z,97009.59
2023-03-22T08:39:03.220Z,97022.59
2023-03-22T08:41:57.279Z,97005.09
2023-03-22T08:44:27.050Z,97000.19
2023-03-22T08:46:56.389Z,97003.31
2023-03-22T08:49:24.669Z,97008.28
2023-03-22T08:51:59.324Z,97009.09
2023-03-22T08:54:46.770Z,97010.66
2023-03-22T08:57:49.941Z,97023.78
2023-03-22T09:00:25.744Z,97012.00
2023-03-22T09:03:15.585Z,97002.41
2023-03-22T09:05:43.535Z,97019.28
2023-03-22T09:08:18.538Z,97006.25
2023-03-22T09:10:52.151Z,97004.28
2023-03-22T09:13:22.217Z,97000.06
2023-03-22T09:15:56.129Z,97002.56
2023-03-22T09:18:28.419Z,97007.31
2023-03-22T09:21:00.515Z,97000.59
2023-03-22T09:23:35.713Z,96995.50
2023-03-22T09:26:03.990Z,96998.94
2023-03-22T09:28:31.987Z,96996.03
2023-03-22T09:31:03.682Z,97000.03
2023-03-22T09:33:33.022Z,97005.94
2023-03-22T09:36:00.258Z,96999.06
2023-03-22T09:38:29.175Z,96999.00
2023-03-22T09:40:58.298Z,97001.22
2023-03-22T09:43:26.563Z,97011.81
2023-03-22T09:45:55.067Z,97000.16
2023-03-22T09:48:24.775Z,96991.41
2023-03-22T09:50:54.837Z,96991.25
2023-03-22T09:53:23.868Z,96985.63
2023-03-22T09:55:54.980Z,96990.44
2023-03-22T09:58:25.818Z,96993.13
2023-03-22T10:00:58.134Z,96991.31
2023-03-22T10:03:32.745Z,96976.22
2023-03-22T10:06:03.191Z,96978.81
2023-03-22T10:08:35.977Z,96969.72
2023-03-22T10:11:08.355Z,96977.34
2023-03-22T10:13:40.777Z,96973.31
2023-03-22T10:16:12.547Z,96978.66
2023-03-22T10:18:42.775Z,96965.69
2023-03-22T10:21:12.968Z,96960.53
2023-03-22T10:23:44.004Z,96961.34
2023-03-22T10:26:19.110Z,96961.09
2023-03-22T10:28:50.472Z,96959.78
2023-03-22T10:31:18.064Z,96973.94
2023-03-22T10:33:47.612Z,96958.41
2023-03-22T10:36:17.383Z,96961.03
2023-03-22T10:38:47.335Z,96960.16
2023-03-22T10:41:16.462Z,96958.22
2023-03-22T10:43:44.760Z,96953.69
2023-03-22T10:46:15.553Z,96949.34
2023-03-22T10:48:44.986Z,96955.19
2023-03-22T10:51:16.295Z,96948.00
2023-03-22T10:53:46.190Z,96951.34
2023-03-22T10:56:14.027Z,96946.44
2023-03-22T10:58:41.302Z,96947.06
2023-03-22T11:01:09.419Z,96947.50
2023-03-22T11:03:38.412Z,96937.09
2023-03-22T11:06:07.143Z,96940.81
2023-03-22T11:08:42.177Z,96940.56
2023-03-22T11:11:18.279Z,96939.50
2023-03-22T11:13:50.156Z,96950.41
2023-03-22T11:16:18.530Z,96929.75
2023-03-22T11:18:46.086Z,96921.84
2023-03-22T11:21:15.940Z,96923.16
2023-03-22T11:23:46.799Z,96917.28
2023-03-22T11:26:14.666Z,96915.34
2023-03-22T11:28:46.365Z,96913.72
2023-03-22T11:31:14.185Z,96907.63
2023-03-22T11:33:54.276Z,96904.78
2023-03-22T11:36:22.209Z,96913.88
2023-03-22T11:38:56.675Z,96906.53
2023-03-22T11:41:25.310Z,96902.44
2023-03-22T11:43:55.927Z,96912.44
2023-03-22T11:46:23.551Z,96900.28
2023-03-22T11:48:52.396Z,96892.50
2023-03-22T11:51:27.303Z,96887.44
2023-03-22T11:53:56.508Z,96885.19
2023-03-22T11:56:28.061Z,96885.41
2023-03-22T11:58:58.410Z,96888.00
2023-03-22T12:01:31.487Z,96881.44
2023-03-22T12:03:59.469Z,96867.53
2023-03-22T12:06:28.214Z,96866.75
2023-03-22T12:08:58.239Z,96872.16
2023-03-22T12:11:29.788Z,96867.28
2023-03-22T12:14:00.215Z,96868.19
2023-03-22T12:16:29.579Z,96858.84
2023-03-22T12:19:02.316Z,96856.88
2023-03-22T12:21:29.955Z,96859.69
2023-03-22T12:23:59.388Z,96849.84
2023-03-22T12:26:28.355Z,96854.47
2023-03-22T12:28:57.179Z,96862.06
2023-03-22T12:31:28.063Z,96858.88
2023-03-22T12:33:57.978Z,96862.88
2023-03-22T12:36:30.213Z,96856.28
2023-03-22T12:38:58.877Z,96848.28
2023-03-22T12:41:26.854Z,96857.75
2023-03-22T12:43:55.891Z,96855.81
2023-03-22T12:46:24.256Z,96842.03
2023-03-22T12:48:56.277Z,96850.38
2023-03-22T12:51:23.870Z,96859.44
2023-03-22T12:53:52.233Z,96853.44
2023-03-22T12:56:22.487Z,96852.66
2023-03-22T12:58:51.895Z,96850.69
2023-03-22T13:01:22.737Z,96858.38
2023-03-22T13:03:50.978Z,96860.63
2023-03-22T13:06:32.851Z,96858.66
2023-03-22T13:09:11.374Z,96852.97
2023-03-22T13:11:38.662Z,96858.50
2023-03-22T13:14:06.276Z,96855.66
2023-03-22T13:16:47.847Z,96855.69
2023-03-22T13:19:27.172Z,96854.97
2023-03-22T13:22:09.734Z,96871.88
2023-03-22T13:24:58.094Z,96870.41
2023-03-22T13:27:34.095Z,96878.59
2023-03-22T13:30:02.296Z,96871.59
2023-03-22T13:32:31.448Z,96866.09
2023-03-22T13:34:59.239Z,96881.94
2023-03-22T13:37:31.086Z,96871.78
2023-03-22T13:40:01.034Z,96881.53
2023-03-22T13:42:32.550Z,96886.06
2023-03-22T13:45:00.931Z,96885.66
2023-03-22T13:47:36.931Z,96891.38
2023-03-22T13:50:11.515Z,96890.28
2023-03-22T13:52:40.713Z,96897.19
2023-03-22T13:55:35.691Z,96881.06
2023-03-22T13:58:03.477Z,96885.94
2023-03-22T14:00:48.759Z,96878.72
2023-03-22T14:03:18.809Z,96880.75
2023-03-22T14:05:46.534Z,96879.75
2023-03-22T14:08:20.033Z,96879.00
2023-03-22T14:10:50.729Z,96879.06
2023-03-22T14:13:22.008Z,96880.22
2023-03-22T14:15:50.838Z,96878.31
2023-03-22T14:18:20.784Z,96875.28
2023-03-22T14:20:50.291Z,96877.56
